createdAt,value
2023-02-03T00:01:46.662Z,95676.02
2023-02-03T00:04:16.236Z,95677.58
2023-02-03T00:06:45.121Z,95688.10
2023-02-03T00:09:14.760Z,95691.92
2023-02-03T00:11:42.902Z,95690.70
2023-02-03T00:14:11.389Z,95689.38
2023-02-03T00:16:39.650Z,95688.63
2023-02-03T00:19:07.838Z,95692.40
2023-02-03T00:21:36.114Z,95693.45
2023-02-03T00:24:04.599Z,95691.96
2023-02-03T00:26:32.883Z,95693.95
2023-02-03T00:29:01.384Z,95696.27
2023-02-03T00:31:29.563Z,95700.94
2023-02-03T00:33:58.224Z,95699.90
2023-02-03T00:36:26.921Z,95703.44
2023-02-03T00:38:55.187Z,95706.80
2023-02-03T00:41:28.386Z,95706.43
2023-02-03T00:43:56.658Z,95713.25
2023-02-03T00:46:24.844Z,95716.95
2023-02-03T00:48:53.168Z,95720.76
2023-02-03T00:51:21.700Z,95725.27
2023-02-03T00:53:49.880Z,95727.80
2023-02-03T00:56:18.054Z,95730.95
2023-02-03T00:58:46.747Z,95733.46
2023-02-03T01:01:14.977Z,95725.89
2023-02-03T01:03:44.528Z,95730.42
2023-02-03T01:06:19.987Z,95732.92
2023-02-03T01:08:49.150Z,95734.23
2023-02-03T01:11:22.987Z,95736.48
2023-02-03T01:13:53.294Z,95739.00
2023-02-03T01:16:24.118Z,95741.09
2023-02-03T01:18:52.637Z,95737.89
2023-02-03T01:21:24.365Z,95736.73
2023-02-03T01:23:53.366Z,95731.58
2023-02-03T01:26:23.725Z,95732.83
2023-02-03T01:28:54.266Z,95735.50
2023-02-03T01:31:26.438Z,95739.49
2023-02-03T01:33:55.815Z,95744.21
2023-02-03T01:36:26.318Z,95750.46
2023-02-03T01:38:55.056Z,95758.50
2023-02-03T01:41:26.432Z,95756.57
2023-02-03T01:43:56.998Z,95755.05
2023-02-03T01:46:33.798Z,95749.19
2023-02-03T01:49:13.639Z,95751.51
2023-02-03T01:51:44.706Z,95750.63
2023-02-03T01:54:19.035Z,95753.70
2023-02-03T01:56:54.550Z,95756.17
2023-02-03T01:59:24.763Z,95759.21
2023-02-03T02:01:54.430Z,95762.31
2023-02-03T02:04:29.791Z,95770.55
2023-02-03T02:06:58.991Z,95777.91
2023-02-03T02:09:27.994Z,95777.05
2023-02-03T02:11:56.197Z,95781.01
2023-02-03T02:14:24.534Z,95784.30
2023-02-03T02:17:24.093Z,95791.52
2023-02-03T02:20:28.252Z,95788.70
2023-02-03T02:23:24.767Z,95790.42
2023-02-03T02:26:11.478Z,95788.70
2023-02-03T02:28:45.895Z,95790.84
2023-02-03T02:31:41.093Z,95790.35
2023-02-03T02:34:12.693Z,95796.88
2023-02-03T02:37:10.945Z,95797.09
2023-02-03T02:39:48.890Z,95799.84
2023-02-03T02:42:34.758Z,95804.25
2023-02-03T02:45:15.705Z,95813.97
2023-02-03T02:47:45.374Z,95811.30
2023-02-03T02:50:20.535Z,95806.95
2023-02-03T02:52:51.552Z,95805.63
2023-02-03T02:55:25.009Z,95801.31
2023-02-03T02:57:58.084Z,95801.48
2023-02-03T03:00:31.588Z,95805.59
2023-02-03T03:03:18.008Z,95804.94
2023-02-03T03:06:01.986Z,95807.04
2023-02-03T03:08:37.203Z,95809.72
2023-02-03T03:11:06.088Z,95817.13
2023-02-03T03:13:41.827Z,95815.48
2023-02-03T03:16:13.981Z,95819.06
2023-02-03T03:19:16.578Z,95814.95
2023-02-03T03:21:57.864Z,95821.13
2023-02-03T03:24:31.940Z,95822.34
2023-02-03T03:27:10.597Z,95823.23
2023-02-03T03:29:44.449Z,95825.39
2023-02-03T03:32:13.833Z,95826.04
2023-02-03T03:34:43.021Z,95829.83
2023-02-03T03:37:20.755Z,95822.55
2023-02-03T03:39:56.472Z,95822.95
2023-02-03T03:42:31.869Z,95824.51
2023-02-03T03:45:25.483Z,95827.42
2023-02-03T03:48:04.421Z,95832.10
2023-02-03T03:50:41.698Z,95836.64
2023-02-03T03:53:12.032Z,95838.55
2023-02-03T03:55:42.146Z,95840.21
2023-02-03T03:58:19.232Z,95839.67
2023-02-03T04:00:48.459Z,95843.73
2023-02-03T04:03:23.747Z,95846.81
2023-02-03T04:05:52.054Z,95851.61
2023-02-03T04:08:20.237Z,95851.58
2023-02-03T04:10:48.406Z,95853.27
2023-02-03T04:13:20.024Z,95851.21
2023-02-03T04:15:48.322Z,95852.06
2023-02-03T04:18:17.425Z,95853.24
2023-02-03T04:20:45.733Z,95856.05
2023-02-03T04:23:13.899Z,95853.37
2023-02-03T04:25:42.075Z,95855.51
2023-02-03T04:28:10.340Z,95852.82
2023-02-03T04:30:38.848Z,95856.65
2023-02-03T04:33:07.148Z,95855.80
2023-02-03T04:35:35.286Z,95854.02
2023-02-03T04:38:03.494Z,95855.79
2023-02-03T04:40:33.397Z,95856.36
2023-02-03T04:43:08.006Z,95858.64
2023-02-03T04:45:36.278Z,95858.23
2023-02-03T04:48:05.072Z,95858.33
2023-02-03T04:50:33.339Z,95859.23
2023-02-03T04:53:01.768Z,95850.81
2023-02-03T04:55:29.906Z,95851.89
2023-02-03T04:57:59.682Z,95854.31
2023-02-03T05:00:29.950Z,95856.18
2023-02-03T05:02:58.483Z,95860.31
2023-02-03T05:05:26.761Z,95863.41
2023-02-03T05:07:54.820Z,95863.71
2023-02-03T05:10:22.839Z,95863.75
2023-02-03T05:12:51.032Z,95866.98
2023-02-03T05:15:19.519Z,95870.27
2023-02-03T05:17:47.820Z,95872.23
2023-02-03T05:20:16.086Z,95871.30
2023-02-03T05:22:44.556Z,95873.89
2023-02-03T05:25:13.469Z,95874.04
2023-02-03T05:27:42.716Z,95880.88
2023-02-03T05:30:11.769Z,95885.34
2023-02-03T05:32:40.028Z,95891.64
2023-02-03T05:35:08.917Z,95895.11
2023-02-03T05:37:37.013Z,95895.17
2023-02-03T05:40:25.390Z,95899.30
2023-02-03T05:42:53.733Z,95894.88
2023-02-03T05:45:21.997Z,95889.09
2023-02-03T05:47:50.103Z,95889.48
2023-02-03T05:50:18.352Z,95887.36
2023-02-03T05:52:47.578Z,95881.11
2023-02-03T05:55:15.771Z,95885.46
2023-02-03T05:57:44.415Z,95889.68
2023-02-03T06:00:13.655Z,95893.56
2023-02-03T06:02:41.887Z,95901.91
2023-02-03T06:05:10.223Z,95899.66
2023-02-03T06:07:38.954Z,95905.82
2023-02-03T06:10:07.850Z,95912.20
2023-02-03T06:12:38.456Z,95913.55
2023-02-03T06:15:07.602Z,95912.39
2023-02-03T06:17:36.678Z,95912.98
2023-02-03T06:20:09.391Z,95911.67
2023-02-03T06:22:37.637Z,95913.63
2023-02-03T06:25:07.006Z,95916.95
2023-02-03T06:27:35.088Z,95920.13
2023-02-03T06:30:04.520Z,95924.35
2023-02-03T06:32:33.080Z,95925.26
2023-02-03T06:35:01.588Z,95933.80
2023-02-03T06:37:29.766Z,95939.64
2023-02-03T06:39:57.946Z,95946.85
2023-02-03T06:42:26.839Z,95948.77
2023-02-03T06:44:55.523Z,95948.05
2023-02-03T06:47:24.217Z,95943.23
2023-02-03T06:49:52.491Z,95945.25
2023-02-03T06:52:21.738Z,95941.66
2023-02-03T06:54:50.173Z,95947.20
2023-02-03T06:57:18.815Z,95953.20
2023-02-03T06:59:48.208Z,95949.23
2023-02-03T07:02:16.553Z,95949.88
2023-02-03T07:04:45.461Z,95952.80
2023-02-03T07:07:13.748Z,95957.06
2023-02-03T07:09:42.412Z,95959.69
2023-02-03T07:12:10.592Z,95961.38
2023-02-03T07:14:39.534Z,95958.86
2023-02-03T07:17:07.775Z,95956.90
2023-02-03T07:19:36.954Z,95957.16
2023-02-03T07:22:05.339Z,95953.98
2023-02-03T07:24:33.709Z,95950.95
2023-02-03T07:27:04.161Z,95948.94
2023-02-03T07:29:32.930Z,95948.46
2023-02-03T07:32:02.893Z,95945.12
2023-02-03T07:34:31.774Z,95949.31
2023-02-03T07:37:00.119Z,95949.48
2023-02-03T07:39:28.293Z,95952.55
2023-02-03T07:41:56.411Z,95952.39
2023-02-03T07:44:25.568Z,95952.98
2023-02-03T07:46:53.890Z,95953.26
2023-02-03T07:49:22.739Z,95957.89
2023-02-03T07:51:50.779Z,95949.41
2023-02-03T07:54:19.109Z,95951.16
2023-02-03T07:56:47.478Z,95950.89
2023-02-03T07:59:17.663Z,95950.83
2023-02-03T08:01:46.012Z,95947.81
2023-02-03T08:04:16.736Z,95945.21
2023-02-03T08:06:45.111Z,95940.16
2023-02-03T08:09:13.481Z,95936.60
2023-02-03T08:11:42.095Z,95935.98
2023-02-03T08:14:10.196Z,95937.48
2023-02-03T08:16:38.554Z,95943.77
2023-02-03T08:19:07.015Z,95939.46
2023-02-03T08:21:36.136Z,95934.03
2023-02-03T08:24:05.667Z,95935.98
2023-02-03T08:26:33.856Z,95929.66
2023-02-03T08:29:03.951Z,95926.24
2023-02-03T08:31:32.428Z,95930.92
2023-02-03T08:34:01.206Z,95932.13
2023-02-03T08:36:29.364Z,95931.77
2023-02-03T08:38:57.409Z,95923.91
2023-02-03T08:41:25.899Z,95918.58
2023-02-03T08:43:55.925Z,95920.52
2023-02-03T08:46:24.309Z,95924.04
2023-02-03T08:48:56.506Z,95926.09
2023-02-03T08:51:24.955Z,95918.20
2023-02-03T08:53:53.600Z,95917.64
2023-02-03T08:56:22.137Z,95914.28
2023-02-03T08:58:50.339Z,95915.37
2023-02-03T09:01:19.026Z,95917.83
2023-02-03T09:03:47.365Z,95913.91
2023-02-03T09:06:16.917Z,95908.09
2023-02-03T09:08:46.552Z,95903.15
2023-02-03T09:11:17.841Z,95907.52
2023-02-03T09:13:46.240Z,95907.02
2023-02-03T09:16:17.441Z,95905.23
2023-02-03T09:18:46.879Z,95903.62
2023-02-03T09:21:32.109Z,95899.14
2023-02-03T09:24:04.052Z,95891.80
2023-02-03T09:26:32.640Z,95891.00
2023-02-03T09:29:00.759Z,95891.34
2023-02-03T09:31:28.806Z,95887.98
2023-02-03T09:33:59.403Z,95891.38
2023-02-03T09:36:28.070Z,95890.20
2023-02-03T09:38:58.249Z,95891.95
2023-02-03T09:41:56.886Z,95893.00
2023-02-03T09:44:37.246Z,95887.06
2023-02-03T09:47:13.873Z,95883.00
2023-02-03T09:49:48.040Z,95882.80
2023-02-03T09:52:27.981Z,95885.41
2023-02-03T09:55:20.453Z,95881.91
2023-02-03T09:58:12.982Z,95883.14
2023-02-03T10:00:52.044Z,95882.41
2023-02-03T10:03:40.862Z,95883.91
2023-02-03T10:06:31.172Z,95884.28
2023-02-03T10:09:32.663Z,95887.47
2023-02-03T10:12:16.773Z,95881.99
2023-02-03T10:14:53.202Z,95880.45
2023-02-03T10:17:33.456Z,95883.48
2023-02-03T10:20:48.268Z,95887.82
2023-02-03T10:23:30.250Z,95885.04
2023-02-03T10:26:01.554Z,95884.77
2023-02-03T10:28:41.812Z,95879.85
2023-02-03T10:31:19.762Z,95878.29
2023-02-03T10:33:48.468Z,95877.60
2023-02-03T10:36:27.628Z,95872.42
2023-02-03T10:39:20.988Z,95864.46
2023-02-03T10:41:49.861Z,95859.13
2023-02-03T10:44:18.099Z,95856.81
2023-02-03T10:46:46.518Z,95859.78
2023-02-03T10:49:16.732Z,95857.98
2023-02-03T10:51:50.591Z,95857.71
2023-02-03T10:54:36.647Z,95852.90
2023-02-03T10:57:14.162Z,95844.61
2023-02-03T10:59:48.167Z,95838.71
2023-02-03T11:02:28.883Z,95834.11
2023-02-03T11:05:19.157Z,95830.25
2023-02-03T11:07:48.579Z,95826.59
2023-02-03T11:10:39.207Z,95822.17
2023-02-03T11:13:19.900Z,95819.21
2023-02-03T11:16:05.302Z,95811.39
2023-02-03T11:18:39.542Z,95810.50
2023-02-03T11:21:21.600Z,95806.46
2023-02-03T11:23:58.057Z,95802.84
2023-02-03T11:26:31.159Z,95797.08
2023-02-03T11:29:01.908Z,95796.33
2023-02-03T11:31:33.237Z,95789.36
2023-02-03T11:34:17.396Z,95787.94
2023-02-03T11:36:45.676Z,95782.30
2023-02-03T11:39:25.941Z,95781.00
2023-02-03T11:41:55.168Z,95778.07
2023-02-03T11:44:26.466Z,95776.80
2023-02-03T11:47:08.948Z,95777.17
2023-02-03T11:49:57.060Z,95778.11
2023-02-03T11:52:28.706Z,95779.63
2023-02-03T11:55:20.978Z,95778.86
2023-02-03T11:58:00.283Z,95776.70
2023-02-03T12:00:46.849Z,95772.10
2023-02-03T12:03:35.437Z,95768.20
2023-02-03T12:06:34.250Z,95770.73
2023-02-03T12:09:22.957Z,95769.09
2023-02-03T12:11:57.140Z,95763.69
2023-02-03T12:15:01.042Z,95761.11
2023-02-03T12:17:47.628Z,95760.23
2023-02-03T12:20:31.070Z,95757.66
2023-02-03T12:23:24.947Z,95758.83
2023-02-03T12:26:01.181Z,95750.90
2023-02-03T12:29:00.615Z,95748.41
2023-02-03T12:31:52.015Z,95741.41
2023-02-03T12:34:54.006Z,95737.02
2023-02-03T12:37:41.857Z,95727.60
2023-02-03T12:40:23.763Z,95722.63
2023-02-03T12:43:00.951Z,95714.71
2023-02-03T12:45:36.969Z,95710.31
2023-02-03T12:48:12.144Z,95703.09
2023-02-03T12:50:46.410Z,95698.60
2023-02-03T12:53:35.130Z,95699.73
2023-02-03T12:56:14.231Z,95694.83
2023-02-03T12:58:50.503Z,95692.08
2023-02-03T13:01:30.894Z,95692.10
2023-02-03T13:04:20.179Z,95687.37
2023-02-03T13:07:13.297Z,95683.81
2023-02-03T13:09:49.941Z,95681.48
2023-02-03T13:12:34.378Z,95676.59
2023-02-03T13:15:21.243Z,95666.67
2023-02-03T13:17:56.385Z,95660.05
2023-02-03T13:20:31.614Z,95653.61
2023-02-03T13:22:59.921Z,95642.56
2023-02-03T13:25:43.852Z,95634.17
2023-02-03T13:28:21.395Z,95628.31
2023-02-03T13:30:56.537Z,95617.56
2023-02-03T13:34:07.860Z,95610.98
2023-02-03T13:37:13.839Z,95602.09
2023-02-03T13:39:41.918Z,95592.86
2023-02-03T13:42:22.890Z,95585.02
2023-02-03T13:44:55.770Z,95578.27
2023-02-03T13:47:29.281Z,95570.63
2023-02-03T13:50:10.361Z,95565.85
2023-02-03T13:52:47.491Z,95561.30
2023-02-03T13:56:07.629Z,95553.13
2023-02-03T13:58:39.333Z,95551.36
2023-02-03T14:01:26.600Z,95547.90
2023-02-03T14:03:55.433Z,95545.38
2023-02-03T14:06:35.888Z,95542.66
2023-02-03T14:09:34.868Z,95541.04
2023-02-03T14:12:15.643Z,95540.10
2023-02-03T14:14:51.291Z,95536.31
2023-02-03T14:17:34.930Z,95531.59
2023-02-03T14:20:26.009Z,95524.34
2023-02-03T14:22:59.049Z,95513.37
2023-02-03T14:25:28.703Z,95503.01
2023-02-03T14:28:05.697Z,95499.83
2023-02-03T14:30:34.010Z,95494.95
2023-02-03T14:33:03.528Z,95489.60
2023-02-03T14:35:35.415Z,95483.19
2023-02-03T14:38:08.156Z,95476.64
2023-02-03T14:40:48.722Z,95469.78
2023-02-03T14:43:44.173Z,95475.01
2023-02-03T14:46:40.483Z,95468.27
2023-02-03T14:49:17.956Z,95467.96
2023-02-03T14:52:18.359Z,95466.15
2023-02-03T14:54:52.830Z,95453.86
2023-02-03T14:57:48.040Z,95447.75
2023-02-03T15:00:19.355Z,95442.02
2023-02-03T15:03:06.852Z,95435.95
2023-02-03T15:05:43.328Z,95431.02
2023-02-03T15:08:33.693Z,95426.00
2023-02-03T15:11:16.090Z,95423.63
2023-02-03T15:13:44.207Z,95420.98
2023-02-03T15:16:18.613Z,95415.08
2023-02-03T15:18:46.966Z,95410.34
2023-02-03T15:21:19.722Z,95399.27
2023-02-03T15:23:49.599Z,95389.68
2023-02-03T15:26:21.527Z,95393.38
2023-02-03T15:29:05.027Z,95390.80
2023-02-03T15:31:34.325Z,95382.50
2023-02-03T15:34:28.706Z,95372.48
2023-02-03T15:37:00.896Z,95365.61
2023-02-03T15:39:58.808Z,95362.52
2023-02-03T15:42:39.428Z,95361.52
2023-02-03T15:45:17.484Z,95362.94
2023-02-03T15:47:56.713Z,95361.22
2023-02-03T15:50:36.589Z,95350.96
2023-02-03T15:53:10.890Z,95349.30
2023-02-03T15:55:45.547Z,95351.23
2023-02-03T15:58:27.993Z,95347.55
2023-02-03T16:01:01.117Z,95342.23
2023-02-03T16:03:43.112Z,95341.70
2023-02-03T16:06:40.690Z,95330.85
2023-02-03T16:09:31.185Z,95328.84
2023-02-03T16:12:17.211Z,95329.58
2023-02-03T16:14:46.476Z,95323.77
2023-02-03T16:17:31.867Z,95318.46
2023-02-03T16:20:12.548Z,95306.65
2023-02-03T16:22:44.146Z,95304.50
2023-02-03T16:25:21.574Z,95303.85
2023-02-03T16:28:31.739Z,95298.02
2023-02-03T16:31:37.098Z,95290.95
2023-02-03T16:34:37.108Z,95283.27
2023-02-03T16:37:39.589Z,95275.88
2023-02-03T16:40:27.220Z,95268.65
2023-02-03T16:43:13.931Z,95262.22
2023-02-03T16:46:01.407Z,95262.85
2023-02-03T16:48:48.532Z,95261.83
2023-02-03T16:51:17.676Z,95258.34
2023-02-03T16:53:48.447Z,95254.09
2023-02-03T16:56:18.777Z,95246.35
2023-02-03T16:58:47.225Z,95243.52
2023-02-03T17:01:15.604Z,95234.55
2023-02-03T17:03:44.518Z,95233.27
2023-02-03T17:06:13.694Z,95236.79
2023-02-03T17:08:42.577Z,95233.40
2023-02-03T17:11:19.834Z,95227.51
2023-02-03T17:13:48.662Z,95222.73
2023-02-03T17:16:19.411Z,95219.30
2023-02-03T17:18:47.707Z,95216.83
2023-02-03T17:21:22.913Z,95209.06
2023-02-03T17:23:51.110Z,95200.77
2023-02-03T17:26:19.789Z,95199.17
2023-02-03T17:28:47.989Z,95198.66
2023-02-03T17:31:20.889Z,95193.61
2023-02-03T17:33:52.949Z,95186.66
2023-02-03T17:36:22.108Z,95180.19
2023-02-03T17:55:33.442Z,95134.64
2023-02-03T17:58:02.025Z,95131.39
2023-02-03T18:00:30.910Z,95131.60
2023-02-03T18:02:59.625Z,95126.77
2023-02-03T18:05:29.094Z,95125.52
2023-02-03T18:07:57.931Z,95126.71
2023-02-03T18:10:27.535Z,95125.75
2023-02-03T18:12:55.854Z,95118.20
2023-02-03T18:15:24.377Z,95110.59
2023-02-03T18:17:52.609Z,95106.28
2023-02-03T18:20:20.974Z,95106.25
2023-02-03T18:22:49.081Z,95104.50
2023-02-03T18:25:17.425Z,95092.85
2023-02-03T18:27:45.850Z,95087.79
2023-02-03T18:30:15.205Z,95084.44
2023-02-03T18:32:44.204Z,95080.73
2023-02-03T18:35:16.924Z,95077.98
2023-02-03T18:37:45.374Z,95071.05
2023-02-03T18:40:13.664Z,95067.80
2023-02-03T18:42:41.892Z,95059.04
2023-02-03T18:45:12.117Z,95055.78
2023-02-03T18:47:40.661Z,95049.95
2023-02-03T18:50:09.459Z,95045.17
2023-02-03T18:52:38.480Z,95037.48
2023-02-03T18:55:07.504Z,95031.27
2023-02-03T18:57:35.718Z,95023.08
2023-02-03T19:00:04.817Z,95016.20
2023-02-03T19:02:34.642Z,95010.27
2023-02-03T19:05:03.208Z,94999.27
2023-02-03T19:07:31.489Z,95000.03
2023-02-03T19:09:59.769Z,94997.83
2023-02-03T19:12:28.148Z,94997.09
2023-02-03T19:14:56.273Z,94983.16
2023-02-03T19:17:24.508Z,94982.34
2023-02-03T19:19:52.728Z,94985.05
2023-02-03T19:22:20.865Z,94979.75
2023-02-03T19:24:49.246Z,94976.55
2023-02-03T19:27:17.443Z,94966.57
2023-02-03T19:29:45.598Z,94968.69
2023-02-03T19:32:14.817Z,94963.02
2023-02-03T19:34:43.004Z,94952.23
2023-02-03T19:37:12.991Z,94949.66
2023-02-03T19:39:41.092Z,94940.46
2023-02-03T19:42:09.343Z,94937.57
2023-02-03T19:44:37.631Z,94931.95
2023-02-03T19:47:05.908Z,94929.04
2023-02-03T19:49:34.581Z,94925.37
2023-02-03T19:52:02.712Z,94921.98
2023-02-03T19:54:32.249Z,94916.02
2023-02-03T19:57:01.994Z,94919.46
2023-02-03T19:59:30.283Z,94911.16
2023-02-03T20:02:04.072Z,94896.67
2023-02-03T20:04:37.832Z,94887.42
2023-02-03T20:07:06.373Z,94885.17
2023-02-03T20:09:34.554Z,94876.48
2023-02-03T20:12:02.796Z,94882.56
2023-02-03T20:14:32.769Z,94886.02
2023-02-03T20:17:03.522Z,94868.38
2023-02-03T20:19:31.849Z,94870.04
2023-02-03T20:22:00.995Z,94872.57
2023-02-03T20:24:29.118Z,94866.95
2023-02-03T20:26:57.428Z,94871.84
2023-02-03T20:29:25.485Z,94867.59
2023-02-03T20:31:55.160Z,94865.09
2023-02-03T20:34:23.373Z,94859.95
2023-02-03T20:36:51.746Z,94854.29
2023-02-03T20:39:20.840Z,94851.27
2023-02-03T20:41:49.881Z,94851.88
2023-02-03T20:44:18.730Z,94845.35
2023-02-03T20:46:47.278Z,94844.13
2023-02-03T20:49:18.339Z,94842.77
2023-02-03T20:51:47.111Z,94836.05
2023-02-03T20:54:18.862Z,94840.23
2023-02-03T20:56:48.207Z,94840.34
2023-02-03T20:59:19.300Z,94831.00
2023-02-03T21:01:47.874Z,94824.48
2023-02-03T21:04:36.576Z,94821.73
2023-02-03T21:07:16.093Z,94810.56
2023-02-03T21:09:44.627Z,94808.98
2023-02-03T21:12:13.883Z,94803.74
2023-02-03T21:14:44.560Z,94801.96
2023-02-03T21:17:27.328Z,94804.73
2023-02-03T21:19:55.673Z,94803.04
2023-02-03T21:22:25.348Z,94797.34
2023-02-03T21:24:59.962Z,94796.39
2023-02-03T21:27:34.671Z,94788.90
2023-02-03T21:30:24.598Z,94786.49
2023-02-03T21:32:52.611Z,94787.55
2023-02-03T21:35:37.464Z,94782.42
2023-02-03T21:38:38.297Z,94781.23
2023-02-03T21:41:18.442Z,94781.87
2023-02-03T21:43:50.208Z,94778.08
2023-02-03T21:46:23.266Z,94777.73
2023-02-03T21:48:57.579Z,94776.77
2023-02-03T21:51:45.949Z,94774.23
2023-02-03T21:54:20.150Z,94774.73
2023-02-03T21:56:50.739Z,94777.10
2023-02-03T21:59:22.825Z,94769.70
2023-02-03T22:01:53.271Z,94768.82
2023-02-03T22:04:21.584Z,94772.56
2023-02-03T22:06:53.206Z,94769.63
2023-02-03T22:09:26.578Z,94768.77
2023-02-03T22:11:55.136Z,94769.12
2023-02-03T22:14:23.806Z,94766.96
2023-02-03T22:16:52.161Z,94768.45
2023-02-03T22:19:20.592Z,94767.88
2023-02-03T22:21:51.319Z,94771.31
2023-02-03T22:24:19.422Z,94766.98
2023-02-03T22:26:47.427Z,94766.52
2023-02-03T22:29:15.641Z,94768.95
2023-02-03T22:31:44.098Z,94771.97
2023-02-03T22:34:12.369Z,94767.52
2023-02-03T22:36:40.576Z,94766.80
2023-02-03T22:39:08.811Z,94770.16
2023-02-03T22:41:37.234Z,94766.56
2023-02-03T22:44:06.115Z,94767.95
2023-02-03T22:46:34.222Z,94763.23
2023-02-03T22:49:02.276Z,94765.40
2023-02-03T22:51:30.589Z,94763.84
2023-02-03T22:53:58.739Z,94764.21
2023-02-03T22:56:26.891Z,94763.25
2023-02-03T22:58:54.992Z,94759.61
2023-02-03T23:01:23.368Z,94756.42
2023-02-03T23:03:51.531Z,94759.09
2023-02-03T23:06:19.729Z,94756.62
2023-02-03T23:08:47.883Z,94758.17
2023-02-03T23:11:16.075Z,94756.35
2023-02-03T23:13:44.223Z,94756.05
2023-02-03T23:16:12.508Z,94754.02
2023-02-03T23:18:40.696Z,94754.56
2023-02-03T23:21:09.072Z,94753.64
2023-02-03T23:23:37.334Z,94749.44
2023-02-03T23:26:06.038Z,94746.41
2023-02-03T23:28:34.259Z,94745.15
2023-02-03T23:31:04.147Z,94743.19
2023-02-03T23:33:32.524Z,94745.30
2023-02-03T23:36:00.816Z,94739.36
2023-02-03T23:38:29.235Z,94740.13
2023-02-03T23:40:57.622Z,94740.59
2023-02-03T23:43:25.784Z,94743.48
2023-02-03T23:45:54.119Z,94740.16
2023-02-03T23:48:22.823Z,94738.38
2023-02-03T23:50:51.998Z,94738.85
2023-02-03T23:53:20.278Z,94736.32
2023-02-03T23:55:48.383Z,94736.65
2023-02-03T23:58:16.415Z,94729.91
